createdAt,value
2023-02-21T00:02:39.539Z,1.80
2023-02-21T00:05:24.587Z,1.80
2023-02-21T00:08:09.726Z,1.70
2023-02-21T00:10:54.877Z,1.80
2023-02-21T00:13:39.966Z,1.50
2023-02-21T00:16:25.182Z,1.50
2023-02-21T00:19:10.187Z,1.50
2023-02-21T00:21:55.320Z,1.70
2023-02-21T00:24:40.394Z,1.40
2023-02-21T00:27:25.625Z,1.50
2023-02-21T00:30:10.809Z,1.60
2023-02-21T00:32:56.035Z,1.40
2023-02-21T00:35:41.335Z,1.60
2023-02-21T00:38:26.890Z,1.30
2023-02-21T00:41:12.761Z,1.40
2023-02-21T00:43:58.787Z,1.50
2023-02-21T00:46:43.861Z,2.10
2023-02-21T00:49:28.907Z,2.30
2023-02-21T00:52:14.059Z,1.90
2023-02-21T00:54:59.683Z,2.10
2023-02-21T00:57:44.628Z,2.00
2023-02-21T01:00:34.244Z,2.10
2023-02-21T01:03:19.439Z,2.20
2023-02-21T01:06:04.600Z,2.10
2023-02-21T01:08:50.018Z,2.50
2023-02-21T01:11:36.152Z,2.30
2023-02-21T01:14:21.563Z,1.80
2023-02-21T01:17:12.839Z,2.10
2023-02-21T01:19:58.476Z,1.90
2023-02-21T01:22:43.537Z,1.80
2023-02-21T01:25:28.768Z,1.80
2023-02-21T01:28:14.304Z,1.70
2023-02-21T01:30:59.545Z,1.80
2023-02-21T01:33:44.810Z,1.80
2023-02-21T01:36:30.375Z,1.70
2023-02-21T01:39:15.585Z,1.70
2023-02-21T01:42:00.588Z,1.90
2023-02-21T01:44:49.612Z,1.90
2023-02-21T01:47:35.013Z,1.90
2023-02-21T01:50:22.343Z,1.70
2023-02-21T01:53:07.856Z,1.90
2023-02-21T01:55:54.692Z,1.60
2023-02-21T01:58:41.189Z,1.60
2023-02-21T02:01:28.616Z,1.80
2023-02-21T02:04:14.316Z,1.70
2023-02-21T02:06:59.344Z,1.90
2023-02-21T02:09:44.515Z,1.80
2023-02-21T02:12:26.107Z,1.80
2023-02-21T02:15:11.746Z,1.60
2023-02-21T02:17:38.372Z,1.40
2023-02-21T02:20:04.964Z,1.60
2023-02-21T02:22:38.799Z,1.60
2023-02-21T02:25:05.405Z,1.90
2023-02-21T02:27:44.532Z,2.30
2023-02-21T02:30:17.464Z,2.10
2023-02-21T02:32:53.202Z,2.10
2023-02-21T02:35:19.805Z,2.10
2023-02-21T02:37:46.409Z,1.40
2023-02-21T02:40:33.377Z,1.40
2023-02-21T02:43:18.188Z,1.70
2023-02-21T02:45:48.565Z,1.50
2023-02-21T02:48:18.263Z,1.80
2023-02-21T02:50:46.993Z,1.50
2023-02-21T02:53:16.347Z,1.70
2023-02-21T02:55:48.906Z,1.80
2023-02-21T02:58:15.785Z,1.50
2023-02-21T03:00:45.874Z,1.60
2023-02-21T03:03:15.554Z,1.60
2023-02-21T03:05:57.481Z,1.50
2023-02-21T03:08:31.366Z,2.00
2023-02-21T03:11:13.250Z,2.20
2023-02-21T03:13:46.252Z,1.60
2023-02-21T03:16:15.891Z,1.50
2023-02-21T03:19:01.424Z,1.50
2023-02-21T03:21:29.952Z,1.70
2023-02-21T03:23:57.746Z,1.70
2023-02-21T03:26:26.097Z,1.50
2023-02-21T03:28:53.506Z,1.60
2023-02-21T03:31:23.356Z,1.60
2023-02-21T03:33:50.008Z,1.40
2023-02-21T03:36:16.777Z,1.50
2023-02-21T03:38:43.576Z,1.80
2023-02-21T03:41:12.284Z,1.90
2023-02-21T03:43:39.197Z,1.30
2023-02-21T03:46:05.843Z,1.40
2023-02-21T03:48:32.996Z,1.70
2023-02-21T03:50:59.985Z,1.70
2023-02-21T03:53:26.897Z,1.70
2023-02-21T03:55:53.756Z,1.80
2023-02-21T03:58:20.393Z,1.70
2023-02-21T04:00:47.212Z,1.60
2023-02-21T04:03:14.024Z,1.40
2023-02-21T04:05:40.802Z,1.30
2023-02-21T04:08:07.550Z,1.50
2023-02-21T04:10:38.203Z,1.60
2023-02-21T04:13:13.876Z,1.30
2023-02-21T04:15:40.538Z,1.60
2023-02-21T04:18:07.219Z,1.60
2023-02-21T04:20:33.867Z,1.20
2023-02-21T04:23:03.598Z,1.40
2023-02-21T04:25:30.519Z,1.30
2023-02-21T04:27:57.151Z,1.20
2023-02-21T04:30:24.879Z,1.40
2023-02-21T04:32:51.689Z,1.50
2023-02-21T04:35:18.384Z,1.10
2023-02-21T04:37:45.179Z,1.40
2023-02-21T04:40:11.876Z,1.50
2023-02-21T04:42:38.748Z,1.50
2023-02-21T04:45:05.702Z,1.40
2023-02-21T04:47:32.369Z,1.20
2023-02-21T04:49:59.086Z,1.20
2023-02-21T04:52:25.772Z,1.50
2023-02-21T04:54:54.314Z,1.70
2023-02-21T04:57:21.025Z,1.60
2023-02-21T04:59:47.756Z,1.20
2023-02-21T05:02:14.542Z,1.40
2023-02-21T05:04:43.132Z,1.50
2023-02-21T05:07:09.843Z,1.20
2023-02-21T05:09:36.548Z,1.70
2023-02-21T05:12:03.316Z,1.80
2023-02-21T05:14:29.966Z,1.30
2023-02-21T05:16:56.609Z,1.30
2023-02-21T05:19:27.643Z,1.30
2023-02-21T05:21:55.896Z,1.20
2023-02-21T05:24:23.000Z,1.10
2023-02-21T05:26:50.086Z,1.30
2023-02-21T05:29:16.739Z,1.20
2023-02-21T05:31:43.425Z,1.10
2023-02-21T05:34:10.296Z,1.30
2023-02-21T05:36:37.029Z,0.70
2023-02-21T05:39:04.372Z,0.70
2023-02-21T05:41:31.084Z,0.90
2023-02-21T05:43:57.759Z,1.10
2023-02-21T05:46:28.913Z,1.40
2023-02-21T05:48:56.119Z,1.30
2023-02-21T05:51:23.304Z,1.00
2023-02-21T05:53:50.208Z,1.00
2023-02-21T05:56:17.261Z,0.90
2023-02-21T05:58:43.993Z,1.00
2023-02-21T06:01:10.757Z,1.30
2023-02-21T06:03:37.528Z,1.30
2023-02-21T06:06:04.347Z,0.90
2023-02-21T06:08:31.203Z,1.10
2023-02-21T06:11:26.090Z,0.80
2023-02-21T06:13:53.355Z,1.00
2023-02-21T06:16:20.180Z,1.10
2023-02-21T06:18:50.209Z,0.80
2023-02-21T06:21:17.040Z,1.10
2023-02-21T06:23:43.780Z,1.10
2023-02-21T06:26:10.535Z,1.10
2023-02-21T06:28:37.224Z,1.30
2023-02-21T06:31:05.005Z,1.30
2023-02-21T06:33:31.790Z,1.20
2023-02-21T06:35:58.665Z,1.20
2023-02-21T06:38:26.104Z,1.30
2023-02-21T06:40:52.758Z,1.30
2023-02-21T06:43:19.445Z,1.30
2023-02-21T06:45:46.113Z,1.30
2023-02-21T06:48:16.284Z,1.40
2023-02-21T06:50:42.981Z,1.90
2023-02-21T06:53:09.673Z,2.30
2023-02-21T06:55:36.335Z,2.10
2023-02-21T06:58:03.025Z,1.80
2023-02-21T07:00:29.710Z,2.30
2023-02-21T07:02:56.393Z,2.50
2023-02-21T07:05:23.333Z,2.40
2023-02-21T07:07:50.033Z,2.50
2023-02-21T07:10:16.840Z,2.60
2023-02-21T07:12:43.504Z,2.70
2023-02-21T07:15:10.216Z,3.00
2023-02-21T07:17:36.859Z,3.20
2023-02-21T07:20:04.750Z,3.30
2023-02-21T07:22:31.513Z,3.40
2023-02-21T07:24:58.172Z,3.60
2023-02-21T07:27:24.845Z,3.80
2023-02-21T07:29:51.504Z,4.00
2023-02-21T07:32:18.249Z,4.30
2023-02-21T07:34:45.240Z,4.90
2023-02-21T07:37:12.205Z,4.90
2023-02-21T07:39:38.941Z,4.50
2023-02-21T07:42:07.978Z,4.80
2023-02-21T07:44:34.895Z,5.00
2023-02-21T07:47:01.785Z,5.00
2023-02-21T07:49:28.459Z,5.10
2023-02-21T07:52:08.313Z,5.20
2023-02-21T07:54:36.449Z,5.60
2023-02-21T07:57:03.338Z,5.80
2023-02-21T07:59:52.067Z,6.10
2023-02-21T08:02:19.261Z,6.20
2023-02-21T08:04:50.065Z,6.40
2023-02-21T08:07:16.884Z,6.90
2023-02-21T08:09:43.717Z,6.80
2023-02-21T08:12:10.505Z,6.70
2023-02-21T08:14:37.342Z,7.30
2023-02-21T08:17:04.150Z,7.20
2023-02-21T08:19:31.180Z,7.60
2023-02-21T08:21:58.071Z,7.80
2023-02-21T08:24:24.905Z,8.00
2023-02-21T08:26:51.749Z,8.20
2023-02-21T08:29:18.634Z,8.40
2023-02-21T08:31:45.417Z,8.50
2023-02-21T08:34:12.569Z,8.30
2023-02-21T08:36:41.119Z,8.90
2023-02-21T08:39:08.556Z,9.50
2023-02-21T08:41:36.225Z,9.30
2023-02-21T08:44:02.875Z,10.10
2023-02-21T08:46:29.581Z,10.10
2023-02-21T08:48:56.350Z,10.10
2023-02-21T08:51:30.385Z,9.80
2023-02-21T08:53:57.097Z,10.20
2023-02-21T08:56:24.550Z,10.90
2023-02-21T08:58:51.516Z,11.20
2023-02-21T09:01:18.537Z,12.00
2023-02-21T09:03:45.378Z,11.80
2023-02-21T09:06:12.130Z,12.10
2023-02-21T09:08:40.661Z,12.60
2023-02-21T09:11:07.809Z,12.30
2023-02-21T09:13:34.521Z,12.60
2023-02-21T09:16:02.225Z,12.60
2023-02-21T09:18:29.595Z,13.10
2023-02-21T09:20:57.889Z,13.60
2023-02-21T09:23:29.347Z,13.50
2023-02-21T09:25:56.841Z,13.50
2023-02-21T09:28:24.206Z,13.80
2023-02-21T09:30:51.527Z,14.20
2023-02-21T09:33:19.115Z,14.10
2023-02-21T09:35:45.939Z,14.20
2023-02-21T09:38:12.794Z,14.70
2023-02-21T09:40:39.584Z,14.90
2023-02-21T09:43:11.158Z,14.80
2023-02-21T09:45:38.454Z,14.60
2023-02-21T09:48:08.025Z,14.50
2023-02-21T09:50:38.500Z,14.90
2023-02-21T09:53:05.378Z,14.90
2023-02-21T09:55:35.535Z,15.10
2023-02-21T09:58:02.652Z,15.30
2023-02-21T10:00:32.866Z,15.20
2023-02-21T10:03:09.425Z,15.60
2023-02-21T10:05:45.653Z,15.80
2023-02-21T10:08:44.965Z,15.90
2023-02-21T10:11:14.951Z,15.80
2023-02-21T10:13:46.061Z,15.70
2023-02-21T10:16:16.387Z,15.70
2023-02-21T10:18:52.145Z,15.60
2023-02-21T10:21:27.942Z,15.60
2023-02-21T10:23:57.994Z,15.60
2023-02-21T10:26:26.479Z,15.90
2023-02-21T10:28:56.415Z,15.80
2023-02-21T10:31:26.887Z,16.10
2023-02-21T10:33:53.825Z,16.10
2023-02-21T10:36:22.207Z,16.00
2023-02-21T10:38:56.941Z,15.80
2023-02-21T10:41:25.355Z,16.00
2023-02-21T10:43:55.215Z,16.10
2023-02-21T10:46:25.797Z,16.10
2023-02-21T10:48:53.898Z,16.30
2023-02-21T10:51:34.796Z,16.20
2023-02-21T10:54:21.094Z,16.10
2023-02-21T10:56:49.025Z,16.10
2023-02-21T10:59:26.277Z,16.30
2023-02-21T11:01:53.578Z,16.10
2023-02-21T11:04:20.230Z,16.10
2023-02-21T11:06:49.008Z,16.40
2023-02-21T11:09:27.875Z,16.60
2023-02-21T11:12:13.187Z,16.80
2023-02-21T11:14:39.874Z,17.00
2023-02-21T11:17:19.869Z,16.90
2023-02-21T11:19:54.003Z,17.10
2023-02-21T11:22:22.768Z,16.90
2023-02-21T11:24:49.447Z,17.30
2023-02-21T11:27:17.017Z,17.10
2023-02-21T11:29:45.305Z,17.30
2023-02-21T11:32:13.261Z,17.10
2023-02-21T11:34:46.252Z,17.20
2023-02-21T11:37:12.953Z,17.60
2023-02-21T11:39:41.426Z,17.60
2023-02-21T11:42:34.436Z,17.90
2023-02-21T11:45:12.841Z,17.90
2023-02-21T11:47:50.899Z,17.70
2023-02-21T11:50:25.894Z,17.80
2023-02-21T11:52:55.751Z,18.10
2023-02-21T11:55:26.256Z,18.30
2023-02-21T11:57:53.260Z,18.50
2023-02-21T12:00:26.004Z,18.40
2023-02-21T12:03:18.058Z,18.40
2023-02-21T12:05:50.153Z,18.60
2023-02-21T12:08:16.832Z,18.70
2023-02-21T12:10:58.860Z,18.80
2023-02-21T12:13:44.425Z,18.80
2023-02-21T12:16:11.111Z,18.80
2023-02-21T12:18:43.932Z,19.00
2023-02-21T12:21:29.512Z,19.00
2023-02-21T12:24:02.394Z,18.60
2023-02-21T12:26:47.845Z,18.40
2023-02-21T12:29:44.736Z,18.60
2023-02-21T12:32:27.375Z,19.00
2023-02-21T12:35:14.877Z,18.90
2023-02-21T12:37:46.705Z,18.70
2023-02-21T12:40:39.622Z,18.50
2023-02-21T12:43:32.718Z,18.60
2023-02-21T12:46:18.947Z,18.60
2023-02-21T12:48:51.721Z,18.20
2023-02-21T12:51:19.851Z,18.00
2023-02-21T12:54:01.607Z,18.60
2023-02-21T12:56:49.557Z,18.70
2023-02-21T12:59:31.464Z,18.70
2023-02-21T13:02:19.792Z,18.70
2023-02-21T13:04:48.277Z,18.60
2023-02-21T13:07:25.527Z,18.80
2023-02-21T13:09:55.352Z,19.10
2023-02-21T13:12:28.273Z,19.00
2023-02-21T13:14:57.322Z,18.90
2023-02-21T13:17:24.349Z,19.10
2023-02-21T13:19:54.633Z,19.00
2023-02-21T13:22:24.845Z,19.00
2023-02-21T13:25:10.402Z,18.90
2023-02-21T13:27:37.060Z,19.00
2023-02-21T13:30:23.515Z,18.90
2023-02-21T13:32:54.968Z,18.60
2023-02-21T13:35:26.802Z,18.90
2023-02-21T13:37:54.319Z,19.00
2023-02-21T13:40:25.662Z,19.10
2023-02-21T13:43:00.372Z,18.90
2023-02-21T13:45:27.365Z,18.70
2023-02-21T13:47:54.011Z,18.80
2023-02-21T13:50:39.298Z,18.80
2023-02-21T13:53:09.368Z,18.80
2023-02-21T13:55:36.577Z,18.70
2023-02-21T13:58:05.264Z,18.90
2023-02-21T14:00:32.037Z,19.10
2023-02-21T14:02:58.702Z,19.30
2023-02-21T14:05:25.981Z,19.10
2023-02-21T14:07:56.895Z,19.00
2023-02-21T14:10:25.592Z,18.90
2023-02-21T14:12:57.064Z,19.20
2023-02-21T14:15:23.727Z,19.40
2023-02-21T14:17:51.720Z,18.70
2023-02-21T14:20:20.463Z,18.70
2023-02-21T14:22:49.750Z,18.90
2023-02-21T14:25:18.708Z,18.60
2023-02-21T14:27:45.816Z,18.40
2023-02-21T14:30:12.656Z,18.40
2023-02-21T14:32:47.119Z,18.30
2023-02-21T14:35:14.271Z,18.40
2023-02-21T14:37:45.395Z,18.40
2023-02-21T14:40:11.996Z,18.50
2023-02-21T14:43:02.215Z,18.30
2023-02-21T14:45:44.665Z,18.20
2023-02-21T14:48:25.859Z,18.20
2023-02-21T14:50:52.476Z,17.90
2023-02-21T14:53:28.283Z,17.70
2023-02-21T14:56:18.641Z,17.60
2023-02-21T14:59:03.819Z,17.80
2023-02-21T15:01:51.344Z,17.90
2023-02-21T15:04:21.176Z,17.70
2023-02-21T15:07:06.414Z,17.60
2023-02-21T15:09:33.322Z,17.50
2023-02-21T15:12:00.083Z,17.60
2023-02-21T15:14:28.400Z,17.50
2023-02-21T15:16:56.529Z,17.30
2023-02-21T15:19:26.258Z,17.10
2023-02-21T15:22:11.755Z,17.10
2023-02-21T15:24:38.456Z,17.10
2023-02-21T15:27:12.269Z,17.10
2023-02-21T15:29:39.879Z,17.00
2023-02-21T15:32:07.026Z,16.80
2023-02-21T15:34:40.289Z,16.50
2023-02-21T15:37:13.060Z,16.30
2023-02-21T15:39:40.788Z,16.20
2023-02-21T15:42:09.030Z,16.40
2023-02-21T15:44:42.597Z,16.30
2023-02-21T15:47:11.245Z,15.60
2023-02-21T15:49:40.319Z,15.70
2023-02-21T15:52:07.402Z,16.10
2023-02-21T15:54:35.516Z,15.40
2023-02-21T15:57:02.646Z,15.50
2023-02-21T15:59:30.165Z,15.00
2023-02-21T16:02:15.181Z,14.80
2023-02-21T16:04:46.360Z,13.80
2023-02-21T16:07:37.411Z,13.70
2023-02-21T16:10:06.356Z,13.70
2023-02-21T16:12:35.094Z,13.60
2023-02-21T16:15:04.807Z,13.40
2023-02-21T16:17:32.758Z,12.80
2023-02-21T16:20:13.384Z,12.50
2023-02-21T16:23:06.375Z,12.40
2023-02-21T16:25:27.596Z,11.70
2023-02-21T16:27:56.034Z,11.20
2023-02-21T16:30:30.136Z,11.40
2023-02-21T16:33:03.863Z,11.20
2023-02-21T16:35:31.140Z,11.00
2023-02-21T16:37:58.565Z,11.40
2023-02-21T16:40:35.141Z,11.00
2023-02-21T16:43:02.968Z,10.80
2023-02-21T16:45:30.706Z,11.10
2023-02-21T16:47:59.072Z,10.70
2023-02-21T16:50:25.716Z,10.80
2023-02-21T16:52:52.429Z,10.50
2023-02-21T16:55:19.946Z,10.60
2023-02-21T16:57:47.936Z,10.50
2023-02-21T17:00:17.856Z,10.20
2023-02-21T17:02:44.605Z,10.20
2023-02-21T17:05:11.967Z,9.60
2023-02-21T17:07:38.649Z,10.00
2023-02-21T17:10:05.546Z,10.10
2023-02-21T17:12:32.236Z,9.90
2023-02-21T17:14:58.916Z,9.70
2023-02-21T17:17:25.601Z,9.80
2023-02-21T17:19:52.289Z,9.70
2023-02-21T17:22:18.977Z,9.40
2023-02-21T17:24:45.729Z,9.30
2023-02-21T17:27:12.393Z,9.40
2023-02-21T17:29:39.241Z,8.90
2023-02-21T17:32:07.164Z,8.60
2023-02-21T17:34:34.402Z,8.30
2023-02-21T17:37:01.274Z,8.30
2023-02-21T17:39:28.037Z,7.90
2023-02-21T17:41:54.728Z,7.70
2023-02-21T17:44:21.553Z,7.70
2023-02-21T17:46:50.690Z,7.90
2023-02-21T17:49:18.071Z,8.00
2023-02-21T17:51:44.856Z,7.90
2023-02-21T17:54:11.556Z,7.90
2023-02-21T17:56:38.197Z,8.10
2023-02-21T17:59:04.979Z,8.20
2023-02-21T18:01:31.898Z,8.10
2023-02-21T18:04:01.215Z,7.80
2023-02-21T18:06:28.668Z,7.50
2023-02-21T18:08:55.566Z,7.50
2023-02-21T18:11:23.641Z,7.50
2023-02-21T18:13:50.741Z,7.40
2023-02-21T18:16:17.668Z,7.20
2023-02-21T18:19:13.312Z,7.10
2023-02-21T18:21:41.578Z,7.30
2023-02-21T18:24:09.092Z,7.50
2023-02-21T18:26:36.205Z,7.40
2023-02-21T18:29:03.596Z,7.10
2023-02-21T18:31:30.381Z,7.10
2023-02-21T18:33:57.362Z,6.90
2023-02-21T18:36:24.250Z,6.80
2023-02-21T18:38:51.049Z,7.00
2023-02-21T18:41:20.722Z,7.30
2023-02-21T18:43:47.529Z,7.10
2023-02-21T18:46:15.729Z,7.10
2023-02-21T18:48:43.773Z,7.00
2023-02-21T18:51:11.409Z,7.30
2023-02-21T18:53:38.613Z,7.00
2023-02-21T18:56:10.613Z,6.80
2023-02-21T18:58:38.209Z,7.00
2023-02-21T19:01:05.464Z,6.80
2023-02-21T19:03:32.376Z,7.00
2023-02-21T19:06:00.046Z,7.10
2023-02-21T19:08:26.813Z,7.30
2023-02-21T19:10:53.895Z,7.10
2023-02-21T19:13:20.692Z,7.40
2023-02-21T19:15:47.386Z,7.50
2023-02-21T19:18:14.108Z,7.70
2023-02-21T19:20:43.259Z,7.70
2023-02-21T19:23:10.208Z,7.50
2023-02-21T19:25:36.962Z,7.70
2023-02-21T19:28:11.826Z,7.80
2023-02-21T19:30:39.028Z,7.20
2023-02-21T19:33:13.466Z,7.50
2023-02-21T19:35:40.382Z,7.70
2023-02-21T19:38:07.989Z,7.30
2023-02-21T19:40:35.558Z,6.90
2023-02-21T19:43:02.418Z,7.00
2023-02-21T19:45:29.243Z,7.00
2023-02-21T19:47:55.933Z,6.70
2023-02-21T19:50:22.804Z,6.20
2023-02-21T19:52:54.539Z,6.20
2023-02-21T19:55:21.344Z,6.30
2023-02-21T19:57:48.079Z,6.70
2023-02-21T20:00:15.195Z,6.60
2023-02-21T20:02:44.420Z,6.40
2023-02-21T20:05:13.957Z,6.10
2023-02-21T20:07:41.020Z,6.10
2023-02-21T20:10:08.217Z,6.10
2023-02-21T20:12:34.857Z,6.10
2023-02-21T20:15:01.535Z,6.30
2023-02-21T20:17:28.177Z,6.50
2023-02-21T20:19:54.828Z,6.60
2023-02-21T20:22:21.734Z,6.00
2023-02-21T20:24:48.549Z,6.10
2023-02-21T20:27:15.801Z,6.20
2023-02-21T20:29:42.548Z,5.40
2023-02-21T20:32:09.279Z,5.80
2023-02-21T20:34:38.427Z,5.60
2023-02-21T20:37:05.090Z,5.60
2023-02-21T20:39:31.905Z,5.70
2023-02-21T20:41:59.561Z,5.90
2023-02-21T20:44:26.560Z,6.00
2023-02-21T20:46:53.814Z,6.00
2023-02-21T20:49:21.432Z,5.40
2023-02-21T20:51:48.468Z,5.50
2023-02-21T20:54:19.884Z,5.80
2023-02-21T20:56:47.584Z,5.50
2023-02-21T20:59:24.879Z,5.30
2023-02-21T21:01:51.585Z,4.90
2023-02-21T21:04:19.415Z,5.00
2023-02-21T21:06:46.577Z,4.90
2023-02-21T21:09:17.760Z,5.00
2023-02-21T21:11:45.206Z,5.10
2023-02-21T21:14:14.460Z,5.20
2023-02-21T21:16:42.258Z,4.90
2023-02-21T21:19:08.992Z,5.10
2023-02-21T21:21:37.861Z,5.20
2023-02-21T21:24:07.364Z,5.10
2023-02-21T21:26:34.089Z,5.10
2023-02-21T21:29:01.509Z,4.40
2023-02-21T21:31:28.284Z,4.30
2023-02-21T21:33:56.449Z,4.30
2023-02-21T21:36:23.209Z,4.50
2023-02-21T21:38:49.847Z,4.50
2023-02-21T21:41:16.843Z,4.30
2023-02-21T21:43:44.081Z,4.30
2023-02-21T21:46:11.644Z,4.40
2023-02-21T21:48:41.110Z,4.70
2023-02-21T21:51:09.466Z,4.90
2023-02-21T21:53:38.836Z,5.00
2023-02-21T21:56:06.505Z,4.70
2023-02-21T21:58:36.067Z,4.00
2023-02-21T22:01:05.472Z,3.70
2023-02-21T22:03:32.362Z,3.80
2023-02-21T22:06:00.628Z,4.10
2023-02-21T22:08:28.485Z,4.20
2023-02-21T22:10:55.153Z,3.90
2023-02-21T22:13:21.921Z,4.20
2023-02-21T22:15:48.807Z,4.40
2023-02-21T22:18:19.444Z,4.50
2023-02-21T22:20:49.779Z,4.40
2023-02-21T22:23:18.188Z,4.20
2023-02-21T22:25:44.902Z,4.10
2023-02-21T22:28:13.193Z,4.10
2023-02-21T22:30:40.391Z,4.30
2023-02-21T22:33:08.315Z,3.70
2023-02-21T22:35:35.099Z,3.30
2023-02-21T22:38:02.170Z,3.60
2023-02-21T22:40:29.904Z,3.90
2023-02-21T22:42:59.320Z,4.10
2023-02-21T22:45:26.785Z,3.80
2023-02-21T22:47:57.832Z,3.90
2023-02-21T22:50:25.352Z,3.70
2023-02-21T22:52:59.490Z,3.90
2023-02-21T22:55:27.206Z,4.10
2023-02-21T22:57:54.766Z,3.80
2023-02-21T23:00:24.323Z,3.80
2023-02-21T23:02:51.961Z,4.20
2023-02-21T23:05:20.685Z,4.20
2023-02-21T23:07:48.703Z,4.00
2023-02-21T23:10:16.673Z,4.40
2023-02-21T23:12:44.456Z,4.80
2023-02-21T23:15:12.208Z,4.70
2023-02-21T23:17:38.852Z,4.40
2023-02-21T23:20:17.757Z,3.70
2023-02-21T23:22:45.156Z,4.20
2023-02-21T23:25:19.649Z,4.60
2023-02-21T23:27:47.513Z,4.40
2023-02-21T23:30:16.499Z,4.40
2023-02-21T23:32:47.235Z,3.60
2023-02-21T23:35:17.461Z,3.70
2023-02-21T23:37:44.927Z,4.30
2023-02-21T23:40:16.608Z,4.20
2023-02-21T23:42:44.190Z,3.70
2023-02-21T23:45:11.589Z,3.60
2023-02-21T23:47:42.039Z,3.80
2023-02-21T23:50:17.824Z,4.00
2023-02-21T23:52:48.460Z,3.60
2023-02-21T23:55:15.867Z,3.50
2023-02-21T23:57:43.533Z,3.90
